Main page
METAR-TAF:

METAR-TAF

Airports :

Zahedan Airport

Zahedan, Iran

latitude: 29-28N, longitude: 060-53E, elevation: 1370 m

Current weather observation

The report was made 40 minutes ago, at 00:00 UTC
Wind 4 kt from the South
Temperature 2°C
Humidity 55%
Pressure 1018 hPa
Visibility 10 km or more
no clouds below 1500 m and no cumulonimbus

METAR: OIZH 210000Z 18004KT CAVOK 02/M06 Q1018 A3007

Time: 04:10 (00:40 UTC)

Forecast

The report was made 1 hour and 40 minutes ago, at 23:00 UTC
Forecast valid from 21 at 00 UTC to 22 at 06 UTC
Wind 10 kt from the North/Northeast
Visibility: 8000 m
Few clouds at a height of 3500 ft
Scattered clouds at a height of 10000 ft
Temporary
from 21 at 09 UTC to 21 at 15 UTC
Wind 18 kt from the North/Northwest
Few clouds at a height of 3500 ft, Towering cumulus.
Scattered clouds at a height of 10000 ft

TAF: OIZH 202300Z 2100/2206 03010KT 8000 FEW035 SCT100 TEMPO 2109/2115 33018KT FEW035TCU SCT100

Weather observations and forecasts of more than 4000 airports (METAR and TAF reports).

The available stations are represented by yellow and red dots on the map.

Hover mouse over dot to see the name of the station.

Then click to see weather observations and forecasts.

To change the map : click on the green buttons with a black cross to zoom in, on the green button with a dash to zoom out, or on the green arrows for adjacent maps.


METAR-TAF: